sensor_id;sensor_type;location;lat;lon;timestamp;P1;durP1;ratioP1;P2;durP2;ratioP2
7545;SDS011;3814;51.454;12.616;2023-05-07T00:02:19;16.67;;;8.25;;
7545;SDS011;3814;51.454;12.616;2023-05-07T00:04:45;17.08;;;7.93;;
7545;SDS011;3814;51.454;12.616;2023-05-07T00:07:10;17.98;;;8.65;;
7545;SDS011;3814;51.454;12.616;2023-05-07T00:09:35;17.65;;;8.25;;
7545;SDS011;3814;51.454;12.616;2023-05-07T00:12:01;18.30;;;8.60;;
7545;SDS011;3814;51.454;12.616;2023-05-07T00:14:26;18.08;;;8.95;;
7545;SDS011;3814;51.454;12.616;2023-05-07T00:16:51;20.83;;;9.27;;
7545;SDS011;3814;51.454;12.616;2023-05-07T00:19:17;19.83;;;9.40;;
7545;SDS011;3814;51.454;12.616;2023-05-07T00:21:42;19.50;;;9.82;;
7545;SDS011;3814;51.454;12.616;2023-05-07T00:24:07;19.13;;;9.60;;
7545;SDS011;3814;51.454;12.616;2023-05-07T00:26:33;22.17;;;10.70;;
7545;SDS011;3814;51.454;12.616;2023-05-07T00:28:58;21.50;;;10.27;;
7545;SDS011;3814;51.454;12.616;2023-05-07T00:31:23;23.35;;;11.02;;
7545;SDS011;3814;51.454;12.616;2023-05-07T00:33:48;21.50;;;9.82;;
7545;SDS011;3814;51.454;12.616;2023-05-07T00:36:14;21.23;;;10.68;;
7545;SDS011;3814;51.454;12.616;2023-05-07T00:38:39;22.08;;;10.80;;
7545;SDS011;3814;51.454;12.616;2023-05-07T00:41:04;23.80;;;10.73;;
7545;SDS011;3814;51.454;12.616;2023-05-07T00:43:30;20.23;;;10.13;;
7545;SDS011;3814;51.454;12.616;2023-05-07T00:45:55;23.08;;;10.85;;
7545;SDS011;3814;51.454;12.616;2023-05-07T00:48:20;24.20;;;10.38;;
7545;SDS011;3814;51.454;12.616;2023-05-07T00:50:46;23.25;;;11.07;;
7545;SDS011;3814;51.454;12.616;2023-05-07T00:53:12;22.52;;;10.10;;
7545;SDS011;3814;51.454;12.616;2023-05-07T00:55:38;20.48;;;10.45;;
7545;SDS011;3814;51.454;12.616;2023-05-07T00:58:03;24.67;;;10.63;;
7545;SDS011;3814;51.454;12.616;2023-05-07T01:00:28;20.83;;;10.07;;
7545;SDS011;3814;51.454;12.616;2023-05-07T01:02:54;22.50;;;10.93;;
7545;SDS011;3814;51.454;12.616;2023-05-07T01:05:19;22.40;;;11.23;;
7545;SDS011;3814;51.454;12.616;2023-05-07T01:07:45;24.23;;;11.75;;
7545;SDS011;3814;51.454;12.616;2023-05-07T01:10:11;24.42;;;11.73;;
7545;SDS011;3814;51.454;12.616;2023-05-07T01:12:37;21.10;;;10.43;;
7545;SDS011;3814;51.454;12.616;2023-05-07T01:15:03;24.13;;;11.68;;
7545;SDS011;3814;51.454;12.616;2023-05-07T01:17:30;21.52;;;11.38;;
7545;SDS011;3814;51.454;12.616;2023-05-07T01:22:28;22.23;;;11.27;;
7545;SDS011;3814;51.454;12.616;2023-05-07T01:24:56;22.77;;;11.30;;
7545;SDS011;3814;51.454;12.616;2023-05-07T01:27:21;24.98;;;11.75;;
7545;SDS011;3814;51.454;12.616;2023-05-07T01:29:46;21.65;;;11.00;;
7545;SDS011;3814;51.454;12.616;2023-05-07T01:32:12;27.65;;;10.98;;
7545;SDS011;3814;51.454;12.616;2023-05-07T01:34:38;23.15;;;11.65;;
7545;SDS011;3814;51.454;12.616;2023-05-07T01:37:04;21.92;;;11.13;;
7545;SDS011;3814;51.454;12.616;2023-05-07T01:39:29;23.58;;;11.40;;
7545;SDS011;3814;51.454;12.616;2023-05-07T01:41:55;19.85;;;10.32;;
7545;SDS011;3814;51.454;12.616;2023-05-07T01:44:21;21.63;;;11.40;;
7545;SDS011;3814;51.454;12.616;2023-05-07T01:46:47;25.55;;;11.68;;
7545;SDS011;3814;51.454;12.616;2023-05-07T01:49:13;20.85;;;10.95;;
7545;SDS011;3814;51.454;12.616;2023-05-07T01:51:38;22.55;;;11.15;;
7545;SDS011;3814;51.454;12.616;2023-05-07T01:54:04;23.45;;;11.70;;
7545;SDS011;3814;51.454;12.616;2023-05-07T01:56:30;26.25;;;12.50;;
7545;SDS011;3814;51.454;12.616;2023-05-07T01:58:55;22.77;;;11.48;;
7545;SDS011;3814;51.454;12.616;2023-05-07T02:01:21;25.73;;;12.50;;
7545;SDS011;3814;51.454;12.616;2023-05-07T02:03:46;26.25;;;11.85;;
7545;SDS011;3814;51.454;12.616;2023-05-07T02:06:12;26.45;;;11.88;;
7545;SDS011;3814;51.454;12.616;2023-05-07T02:08:37;24.45;;;12.18;;
7545;SDS011;3814;51.454;12.616;2023-05-07T02:11:02;24.05;;;11.68;;
7545;SDS011;3814;51.454;12.616;2023-05-07T02:13:29;22.58;;;10.85;;
7545;SDS011;3814;51.454;12.616;2023-05-07T02:15:55;24.17;;;11.65;;
7545;SDS011;3814;51.454;12.616;2023-05-07T02:18:20;24.65;;;11.82;;
7545;SDS011;3814;51.454;12.616;2023-05-07T02:20:45;26.80;;;12.18;;
7545;SDS011;3814;51.454;12.616;2023-05-07T02:23:11;25.92;;;11.27;;
7545;SDS011;3814;51.454;12.616;2023-05-07T02:25:36;26.02;;;11.60;;
7545;SDS011;3814;51.454;12.616;2023-05-07T02:28:01;27.48;;;11.60;;
7545;SDS011;3814;51.454;12.616;2023-05-07T02:30:26;24.00;;;11.32;;
7545;SDS011;3814;51.454;12.616;2023-05-07T02:32:52;24.83;;;11.57;;
7545;SDS011;3814;51.454;12.616;2023-05-07T02:35:17;24.67;;;12.32;;
7545;SDS011;3814;51.454;12.616;2023-05-07T02:37:42;25.00;;;12.07;;
7545;SDS011;3814;51.454;12.616;2023-05-07T02:40:08;25.02;;;11.45;;
7545;SDS011;3814;51.454;12.616;2023-05-07T02:42:34;26.00;;;12.27;;
7545;SDS011;3814;51.454;12.616;2023-05-07T02:44:59;26.00;;;11.80;;
7545;SDS011;3814;51.454;12.616;2023-05-07T02:47:25;26.35;;;11.98;;
7545;SDS011;3814;51.454;12.616;2023-05-07T02:49:53;24.90;;;11.38;;
7545;SDS011;3814;51.454;12.616;2023-05-07T02:52:19;23.92;;;11.35;;
7545;SDS011;3814;51.454;12.616;2023-05-07T02:54:45;27.45;;;12.13;;
7545;SDS011;3814;51.454;12.616;2023-05-07T02:57:10;28.42;;;12.80;;
7545;SDS011;3814;51.454;12.616;2023-05-07T02:59:35;23.30;;;11.57;;
7545;SDS011;3814;51.454;12.616;2023-05-07T03:02:01;24.98;;;10.68;;
7545;SDS011;3814;51.454;12.616;2023-05-07T03:04:26;26.00;;;12.15;;
7545;SDS011;3814;51.454;12.616;2023-05-07T03:06:51;23.40;;;11.45;;
7545;SDS011;3814;51.454;12.616;2023-05-07T03:09:17;25.92;;;11.82;;
7545;SDS011;3814;51.454;12.616;2023-05-07T03:11:42;27.15;;;12.00;;
7545;SDS011;3814;51.454;12.616;2023-05-07T03:14:07;26.30;;;12.10;;
7545;SDS011;3814;51.454;12.616;2023-05-07T03:16:33;27.92;;;12.65;;
7545;SDS011;3814;51.454;12.616;2023-05-07T03:18:58;27.48;;;11.95;;
7545;SDS011;3814;51.454;12.616;2023-05-07T03:21:23;25.73;;;12.27;;
7545;SDS011;3814;51.454;12.616;2023-05-07T03:23:49;25.70;;;12.23;;
7545;SDS011;3814;51.454;12.616;2023-05-07T03:26:14;26.52;;;11.57;;
7545;SDS011;3814;51.454;12.616;2023-05-07T03:28:39;27.20;;;11.85;;
7545;SDS011;3814;51.454;12.616;2023-05-07T03:31:05;26.33;;;12.13;;
7545;SDS011;3814;51.454;12.616;2023-05-07T03:33:32;24.70;;;12.23;;
7545;SDS011;3814;51.454;12.616;2023-05-07T03:35:58;25.42;;;11.93;;
7545;SDS011;3814;51.454;12.616;2023-05-07T03:38:23;23.45;;;11.23;;
7545;SDS011;3814;51.454;12.616;2023-05-07T03:40:48;25.83;;;11.77;;
7545;SDS011;3814;51.454;12.616;2023-05-07T03:43:14;23.45;;;10.40;;
7545;SDS011;3814;51.454;12.616;2023-05-07T03:45:39;27.67;;;12.05;;
7545;SDS011;3814;51.454;12.616;2023-05-07T03:48:05;24.50;;;10.73;;
7545;SDS011;3814;51.454;12.616;2023-05-07T03:50:30;23.63;;;10.75;;
7545;SDS011;3814;51.454;12.616;2023-05-07T03:52:55;25.20;;;11.95;;
7545;SDS011;3814;51.454;12.616;2023-05-07T03:55:20;23.92;;;11.07;;
7545;SDS011;3814;51.454;12.616;2023-05-07T03:57:46;23.40;;;11.48;;
7545;SDS011;3814;51.454;12.616;2023-05-07T04:00:11;28.25;;;11.95;;
7545;SDS011;3814;51.454;12.616;2023-05-07T04:02:37;25.88;;;11.25;;
7545;SDS011;3814;51.454;12.616;2023-05-07T04:05:02;26.38;;;11.57;;
7545;SDS011;3814;51.454;12.616;2023-05-07T04:07:28;26.60;;;12.48;;
7545;SDS011;3814;51.454;12.616;2023-05-07T04:09:53;24.02;;;12.07;;
7545;SDS011;3814;51.454;12.616;2023-05-07T04:12:18;26.27;;;12.30;;
7545;SDS011;3814;51.454;12.616;2023-05-07T04:14:44;24.77;;;12.05;;
7545;SDS011;3814;51.454;12.616;2023-05-07T04:17:09;26.90;;;12.55;;
7545;SDS011;3814;51.454;12.616;2023-05-07T04:19:35;24.08;;;12.50;;
7545;SDS011;3814;51.454;12.616;2023-05-07T04:22:01;24.40;;;12.48;;
7545;SDS011;3814;51.454;12.616;2023-05-07T04:24:26;25.40;;;11.25;;
7545;SDS011;3814;51.454;12.616;2023-05-07T04:26:51;24.02;;;12.18;;
7545;SDS011;3814;51.454;12.616;2023-05-07T04:29:17;24.80;;;11.55;;
7545;SDS011;3814;51.454;12.616;2023-05-07T04:31:43;24.50;;;11.65;;
7545;SDS011;3814;51.454;12.616;2023-05-07T04:34:09;23.05;;;10.52;;
7545;SDS011;3814;51.454;12.616;2023-05-07T04:36:35;23.88;;;10.98;;
7545;SDS011;3814;51.454;12.616;2023-05-07T04:39:02;23.33;;;10.77;;
7545;SDS011;3814;51.454;12.616;2023-05-07T04:41:27;22.25;;;9.90;;
7545;SDS011;3814;51.454;12.616;2023-05-07T04:43:53;22.80;;;9.63;;
7545;SDS011;3814;51.454;12.616;2023-05-07T04:46:18;22.13;;;10.32;;
7545;SDS011;3814;51.454;12.616;2023-05-07T04:48:43;20.13;;;10.18;;
7545;SDS011;3814;51.454;12.616;2023-05-07T04:51:09;21.23;;;10.13;;
7545;SDS011;3814;51.454;12.616;2023-05-07T04:53:34;22.02;;;10.27;;
7545;SDS011;3814;51.454;12.616;2023-05-07T04:55:59;19.55;;;9.75;;
7545;SDS011;3814;51.454;12.616;2023-05-07T04:58:24;19.25;;;9.45;;
7545;SDS011;3814;51.454;12.616;2023-05-07T05:00:50;21.38;;;9.93;;
7545;SDS011;3814;51.454;12.616;2023-05-07T05:03:15;19.02;;;9.68;;
7545;SDS011;3814;51.454;12.616;2023-05-07T05:05:40;19.67;;;10.55;;
7545;SDS011;3814;51.454;12.616;2023-05-07T05:08:06;19.60;;;9.35;;
7545;SDS011;3814;51.454;12.616;2023-05-07T05:10:31;17.55;;;8.85;;
7545;SDS011;3814;51.454;12.616;2023-05-07T05:12:56;18.00;;;8.98;;
7545;SDS011;3814;51.454;12.616;2023-05-07T05:15:22;18.35;;;9.55;;
7545;SDS011;3814;51.454;12.616;2023-05-07T05:17:47;19.38;;;9.57;;
7545;SDS011;3814;51.454;12.616;2023-05-07T05:20:12;16.65;;;9.02;;
7545;SDS011;3814;51.454;12.616;2023-05-07T05:22:38;18.48;;;8.70;;
7545;SDS011;3814;51.454;12.616;2023-05-07T05:25:03;16.95;;;8.85;;
7545;SDS011;3814;51.454;12.616;2023-05-07T05:27:29;16.48;;;8.45;;
7545;SDS011;3814;51.454;12.616;2023-05-07T05:29:55;18.13;;;8.75;;
7545;SDS011;3814;51.454;12.616;2023-05-07T05:32:20;15.95;;;8.63;;
7545;SDS011;3814;51.454;12.616;2023-05-07T05:34:45;20.67;;;9.02;;
7545;SDS011;3814;51.454;12.616;2023-05-07T05:37:10;16.08;;;8.55;;
7545;SDS011;3814;51.454;12.616;2023-05-07T05:39:36;17.52;;;8.77;;
7545;SDS011;3814;51.454;12.616;2023-05-07T05:42:01;18.95;;;8.85;;
7545;SDS011;3814;51.454;12.616;2023-05-07T05:44:26;16.60;;;8.68;;
7545;SDS011;3814;51.454;12.616;2023-05-07T05:46:52;15.40;;;8.57;;
7545;SDS011;3814;51.454;12.616;2023-05-07T05:49:20;18.42;;;8.65;;
7545;SDS011;3814;51.454;12.616;2023-05-07T05:51:45;18.75;;;9.23;;
7545;SDS011;3814;51.454;12.616;2023-05-07T05:54:10;18.00;;;9.02;;
7545;SDS011;3814;51.454;12.616;2023-05-07T05:56:36;16.05;;;8.25;;
7545;SDS011;3814;51.454;12.616;2023-05-07T05:59:01;17.73;;;8.25;;
7545;SDS011;3814;51.454;12.616;2023-05-07T06:01:27;16.83;;;8.73;;
7545;SDS011;3814;51.454;12.616;2023-05-07T06:03:52;16.80;;;8.88;;
7545;SDS011;3814;51.454;12.616;2023-05-07T06:06:17;16.23;;;8.60;;
7545;SDS011;3814;51.454;12.616;2023-05-07T06:08:42;14.90;;;7.63;;
7545;SDS011;3814;51.454;12.616;2023-05-07T06:11:08;13.93;;;7.63;;
7545;SDS011;3814;51.454;12.616;2023-05-07T06:13:33;12.90;;;6.88;;
7545;SDS011;3814;51.454;12.616;2023-05-07T06:15:58;12.63;;;7.15;;
7545;SDS011;3814;51.454;12.616;2023-05-07T06:18:24;13.88;;;7.50;;
7545;SDS011;3814;51.454;12.616;2023-05-07T06:20:49;13.45;;;7.35;;
7545;SDS011;3814;51.454;12.616;2023-05-07T06:23:16;13.73;;;6.88;;
7545;SDS011;3814;51.454;12.616;2023-05-07T06:25:41;13.63;;;7.03;;
7545;SDS011;3814;51.454;12.616;2023-05-07T06:28:06;12.82;;;6.80;;
7545;SDS011;3814;51.454;12.616;2023-05-07T06:30:34;12.77;;;6.90;;
7545;SDS011;3814;51.454;12.616;2023-05-07T06:32:59;13.18;;;7.40;;
7545;SDS011;3814;51.454;12.616;2023-05-07T06:35:24;13.80;;;7.32;;
7545;SDS011;3814;51.454;12.616;2023-05-07T06:37:50;12.60;;;7.25;;
7545;SDS011;3814;51.454;12.616;2023-05-07T06:40:15;12.90;;;6.93;;
7545;SDS011;3814;51.454;12.616;2023-05-07T06:42:41;13.77;;;7.30;;
7545;SDS011;3814;51.454;12.616;2023-05-07T06:45:07;11.45;;;7.10;;
7545;SDS011;3814;51.454;12.616;2023-05-07T06:47:33;10.32;;;6.25;;
7545;SDS011;3814;51.454;12.616;2023-05-07T06:49:58;12.30;;;7.07;;
7545;SDS011;3814;51.454;12.616;2023-05-07T06:52:24;11.93;;;6.65;;
7545;SDS011;3814;51.454;12.616;2023-05-07T06:54:49;10.27;;;5.93;;
7545;SDS011;3814;51.454;12.616;2023-05-07T06:57:14;10.20;;;6.22;;
7545;SDS011;3814;51.454;12.616;2023-05-07T06:59:40;9.65;;;6.10;;
7545;SDS011;3814;51.454;12.616;2023-05-07T07:02:05;9.90;;;6.00;;
7545;SDS011;3814;51.454;12.616;2023-05-07T07:04:31;10.70;;;5.97;;
7545;SDS011;3814;51.454;12.616;2023-05-07T07:06:56;10.52;;;6.25;;
7545;SDS011;3814;51.454;12.616;2023-05-07T07:09:21;9.13;;;5.68;;
7545;SDS011;3814;51.454;12.616;2023-05-07T07:11:47;9.57;;;5.88;;
7545;SDS011;3814;51.454;12.616;2023-05-07T07:14:12;10.25;;;6.25;;
7545;SDS011;3814;51.454;12.616;2023-05-07T07:16:38;9.57;;;5.72;;
7545;SDS011;3814;51.454;12.616;2023-05-07T07:19:03;9.50;;;6.05;;
7545;SDS011;3814;51.454;12.616;2023-05-07T07:21:28;10.50;;;5.97;;
7545;SDS011;3814;51.454;12.616;2023-05-07T07:23:53;9.57;;;5.75;;
7545;SDS011;3814;51.454;12.616;2023-05-07T07:26:19;10.68;;;6.05;;
7545;SDS011;3814;51.454;12.616;2023-05-07T07:28:44;10.48;;;6.22;;
7545;SDS011;3814;51.454;12.616;2023-05-07T07:31:10;11.10;;;6.05;;
7545;SDS011;3814;51.454;12.616;2023-05-07T07:33:36;10.63;;;5.68;;
7545;SDS011;3814;51.454;12.616;2023-05-07T07:36:01;10.20;;;5.78;;
7545;SDS011;3814;51.454;12.616;2023-05-07T07:38:26;12.02;;;6.53;;
7545;SDS011;3814;51.454;12.616;2023-05-07T07:40:52;10.60;;;6.35;;
7545;SDS011;3814;51.454;12.616;2023-05-07T07:43:17;12.25;;;6.60;;
7545;SDS011;3814;51.454;12.616;2023-05-07T07:45:42;11.50;;;6.35;;
7545;SDS011;3814;51.454;12.616;2023-05-07T07:48:07;11.77;;;6.93;;
7545;SDS011;3814;51.454;12.616;2023-05-07T07:50:33;10.90;;;6.28;;
7545;SDS011;3814;51.454;12.616;2023-05-07T07:52:58;10.80;;;6.82;;
7545;SDS011;3814;51.454;12.616;2023-05-07T07:55:23;13.18;;;6.80;;
7545;SDS011;3814;51.454;12.616;2023-05-07T07:57:49;13.45;;;7.65;;
7545;SDS011;3814;51.454;12.616;2023-05-07T08:00:15;14.70;;;7.90;;
7545;SDS011;3814;51.454;12.616;2023-05-07T08:02:41;14.13;;;7.38;;
7545;SDS011;3814;51.454;12.616;2023-05-07T08:05:06;13.32;;;7.47;;
7545;SDS011;3814;51.454;12.616;2023-05-07T08:07:32;14.50;;;8.23;;
7545;SDS011;3814;51.454;12.616;2023-05-07T08:09:58;13.98;;;7.45;;
7545;SDS011;3814;51.454;12.616;2023-05-07T08:12:23;14.05;;;7.68;;
7545;SDS011;3814;51.454;12.616;2023-05-07T08:14:48;16.00;;;7.93;;
7545;SDS011;3814;51.454;12.616;2023-05-07T08:17:13;16.58;;;7.65;;
7545;SDS011;3814;51.454;12.616;2023-05-07T08:19:40;13.95;;;7.68;;
7545;SDS011;3814;51.454;12.616;2023-05-07T08:22:06;15.63;;;7.75;;
7545;SDS011;3814;51.454;12.616;2023-05-07T08:24:31;16.33;;;8.15;;
7545;SDS011;3814;51.454;12.616;2023-05-07T08:26:56;16.65;;;7.93;;
7545;SDS011;3814;51.454;12.616;2023-05-07T08:29:22;12.85;;;7.95;;
7545;SDS011;3814;51.454;12.616;2023-05-07T08:31:47;15.40;;;7.88;;
7545;SDS011;3814;51.454;12.616;2023-05-07T08:34:12;13.43;;;7.38;;
7545;SDS011;3814;51.454;12.616;2023-05-07T08:36:38;14.63;;;7.82;;
7545;SDS011;3814;51.454;12.616;2023-05-07T08:39:03;14.02;;;7.25;;
7545;SDS011;3814;51.454;12.616;2023-05-07T08:41:29;14.82;;;7.80;;
7545;SDS011;3814;51.454;12.616;2023-05-07T08:43:54;12.77;;;6.93;;
7545;SDS011;3814;51.454;12.616;2023-05-07T08:48:48;13.93;;;7.20;;
7545;SDS011;3814;51.454;12.616;2023-05-07T08:51:16;14.07;;;7.90;;
7545;SDS011;3814;51.454;12.616;2023-05-07T08:53:42;15.02;;;7.53;;
7545;SDS011;3814;51.454;12.616;2023-05-07T08:56:08;15.15;;;7.38;;
7545;SDS011;3814;51.454;12.616;2023-05-07T08:58:33;15.52;;;8.45;;
7545;SDS011;3814;51.454;12.616;2023-05-07T09:00:59;14.57;;;7.53;;
7545;SDS011;3814;51.454;12.616;2023-05-07T09:03:32;17.52;;;7.88;;
7545;SDS011;3814;51.454;12.616;2023-05-07T09:05:57;16.25;;;8.23;;
7545;SDS011;3814;51.454;12.616;2023-05-07T09:08:26;13.50;;;7.03;;
7545;SDS011;3814;51.454;12.616;2023-05-07T09:10:52;14.82;;;7.70;;
7545;SDS011;3814;51.454;12.616;2023-05-07T09:13:17;16.85;;;8.23;;
7545;SDS011;3814;51.454;12.616;2023-05-07T09:15:43;15.73;;;8.38;;
7545;SDS011;3814;51.454;12.616;2023-05-07T09:18:08;15.00;;;8.05;;
7545;SDS011;3814;51.454;12.616;2023-05-07T09:20:33;14.55;;;8.43;;
7545;SDS011;3814;51.454;12.616;2023-05-07T09:22:59;13.95;;;8.45;;
7545;SDS011;3814;51.454;12.616;2023-05-07T09:25:28;13.80;;;7.80;;
7545;SDS011;3814;51.454;12.616;2023-05-07T09:27:54;14.25;;;7.43;;
7545;SDS011;3814;51.454;12.616;2023-05-07T09:30:20;13.75;;;7.60;;
7545;SDS011;3814;51.454;12.616;2023-05-07T09:32:45;12.32;;;7.68;;
7545;SDS011;3814;51.454;12.616;2023-05-07T09:35:14;15.55;;;8.07;;
7545;SDS011;3814;51.454;12.616;2023-05-07T09:37:41;14.30;;;7.65;;
7545;SDS011;3814;51.454;12.616;2023-05-07T09:40:07;12.95;;;7.53;;
7545;SDS011;3814;51.454;12.616;2023-05-07T09:42:34;12.40;;;7.07;;
7545;SDS011;3814;51.454;12.616;2023-05-07T09:44:59;12.32;;;7.35;;
7545;SDS011;3814;51.454;12.616;2023-05-07T09:47:25;10.15;;;6.10;;
7545;SDS011;3814;51.454;12.616;2023-05-07T09:49:55;13.77;;;6.90;;
7545;SDS011;3814;51.454;12.616;2023-05-07T09:52:23;13.50;;;7.28;;
7545;SDS011;3814;51.454;12.616;2023-05-07T09:54:48;11.90;;;7.35;;
7545;SDS011;3814;51.454;12.616;2023-05-07T09:57:15;11.50;;;7.13;;
7545;SDS011;3814;51.454;12.616;2023-05-07T09:59:41;11.23;;;7.00;;
7545;SDS011;3814;51.454;12.616;2023-05-07T10:02:07;11.77;;;7.00;;
7545;SDS011;3814;51.454;12.616;2023-05-07T10:04:35;13.80;;;7.72;;
7545;SDS011;3814;51.454;12.616;2023-05-07T10:07:00;12.13;;;7.30;;
7545;SDS011;3814;51.454;12.616;2023-05-07T10:09:26;13.40;;;7.40;;
7545;SDS011;3814;51.454;12.616;2023-05-07T10:11:51;13.10;;;7.75;;
7545;SDS011;3814;51.454;12.616;2023-05-07T10:14:19;13.20;;;7.47;;
7545;SDS011;3814;51.454;12.616;2023-05-07T10:16:44;12.38;;;7.57;;
7545;SDS011;3814;51.454;12.616;2023-05-07T10:19:10;12.85;;;8.07;;
7545;SDS011;3814;51.454;12.616;2023-05-07T10:21:37;13.68;;;7.75;;
7545;SDS011;3814;51.454;12.616;2023-05-07T10:26:38;12.95;;;7.80;;
7545;SDS011;3814;51.454;12.616;2023-05-07T10:29:07;13.18;;;7.45;;
7545;SDS011;3814;51.454;12.616;2023-05-07T10:34:14;11.75;;;7.20;;
7545;SDS011;3814;51.454;12.616;2023-05-07T10:36:41;14.27;;;7.63;;
7545;SDS011;3814;51.454;12.616;2023-05-07T10:39:07;12.45;;;7.25;;
7545;SDS011;3814;51.454;12.616;2023-05-07T10:41:33;12.52;;;6.85;;
7545;SDS011;3814;51.454;12.616;2023-05-07T10:43:58;12.50;;;7.25;;
7545;SDS011;3814;51.454;12.616;2023-05-07T10:46:26;13.52;;;7.43;;
7545;SDS011;3814;51.454;12.616;2023-05-07T10:51:27;12.15;;;7.05;;
7545;SDS011;3814;51.454;12.616;2023-05-07T10:56:43;10.35;;;6.47;;
7545;SDS011;3814;51.454;12.616;2023-05-07T11:01:50;10.15;;;6.28;;
7545;SDS011;3814;51.454;12.616;2023-05-07T11:04:17;9.85;;;6.22;;
7545;SDS011;3814;51.454;12.616;2023-05-07T11:07:12;10.93;;;6.10;;
7545;SDS011;3814;51.454;12.616;2023-05-07T11:15:01;10.40;;;6.32;;
7545;SDS011;3814;51.454;12.616;2023-05-07T11:17:34;10.73;;;5.93;;
7545;SDS011;3814;51.454;12.616;2023-05-07T11:20:00;9.90;;;6.47;;
7545;SDS011;3814;51.454;12.616;2023-05-07T11:25:01;12.40;;;7.25;;
7545;SDS011;3814;51.454;12.616;2023-05-07T11:27:27;13.75;;;6.95;;
7545;SDS011;3814;51.454;12.616;2023-05-07T11:29:53;12.65;;;7.55;;
7545;SDS011;3814;51.454;12.616;2023-05-07T11:32:25;14.48;;;7.50;;
7545;SDS011;3814;51.454;12.616;2023-05-07T11:34:52;13.38;;;7.60;;
7545;SDS011;3814;51.454;12.616;2023-05-07T11:37:18;13.80;;;7.05;;
7545;SDS011;3814;51.454;12.616;2023-05-07T11:39:44;11.25;;;6.82;;
7545;SDS011;3814;51.454;12.616;2023-05-07T11:42:27;11.27;;;6.93;;
7545;SDS011;3814;51.454;12.616;2023-05-07T11:44:53;13.02;;;7.18;;
7545;SDS011;3814;51.454;12.616;2023-05-07T11:47:18;13.65;;;7.95;;
7545;SDS011;3814;51.454;12.616;2023-05-07T11:49:48;13.70;;;7.13;;
7545;SDS011;3814;51.454;12.616;2023-05-07T11:52:15;15.52;;;7.90;;
7545;SDS011;3814;51.454;12.616;2023-05-07T11:54:48;12.27;;;6.95;;
7545;SDS011;3814;51.454;12.616;2023-05-07T11:57:17;11.20;;;6.53;;
7545;SDS011;3814;51.454;12.616;2023-05-07T11:59:42;10.00;;;6.00;;
7545;SDS011;3814;51.454;12.616;2023-05-07T12:02:14;9.60;;;5.78;;
7545;SDS011;3814;51.454;12.616;2023-05-07T12:04:40;9.18;;;5.60;;
7545;SDS011;3814;51.454;12.616;2023-05-07T12:07:10;9.75;;;5.88;;
7545;SDS011;3814;51.454;12.616;2023-05-07T12:09:37;9.52;;;5.22;;
7545;SDS011;3814;51.454;12.616;2023-05-07T12:12:03;9.73;;;5.30;;
7545;SDS011;3814;51.454;12.616;2023-05-07T12:14:29;8.32;;;4.78;;
7545;SDS011;3814;51.454;12.616;2023-05-07T12:16:55;9.32;;;4.85;;
7545;SDS011;3814;51.454;12.616;2023-05-07T12:19:20;9.43;;;5.57;;
7545;SDS011;3814;51.454;12.616;2023-05-07T12:21:45;9.30;;;5.40;;
7545;SDS011;3814;51.454;12.616;2023-05-07T12:24:11;7.75;;;4.82;;
7545;SDS011;3814;51.454;12.616;2023-05-07T12:26:39;8.27;;;5.00;;
7545;SDS011;3814;51.454;12.616;2023-05-07T12:29:07;8.45;;;5.10;;
7545;SDS011;3814;51.454;12.616;2023-05-07T12:31:33;8.10;;;4.45;;
7545;SDS011;3814;51.454;12.616;2023-05-07T12:33:58;7.07;;;4.15;;
7545;SDS011;3814;51.454;12.616;2023-05-07T12:36:23;6.53;;;4.10;;
7545;SDS011;3814;51.454;12.616;2023-05-07T12:38:49;8.27;;;4.38;;
7545;SDS011;3814;51.454;12.616;2023-05-07T12:41:15;6.63;;;4.18;;
7545;SDS011;3814;51.454;12.616;2023-05-07T12:43:42;8.30;;;4.60;;
7545;SDS011;3814;51.454;12.616;2023-05-07T12:46:08;9.30;;;5.10;;
7545;SDS011;3814;51.454;12.616;2023-05-07T12:48:36;7.88;;;4.65;;
7545;SDS011;3814;51.454;12.616;2023-05-07T12:51:02;7.50;;;4.35;;
7545;SDS011;3814;51.454;12.616;2023-05-07T12:53:28;8.07;;;4.88;;
7545;SDS011;3814;51.454;12.616;2023-05-07T12:55:55;7.93;;;4.40;;
7545;SDS011;3814;51.454;12.616;2023-05-07T12:58:28;9.00;;;4.90;;
7545;SDS011;3814;51.454;12.616;2023-05-07T13:00:54;7.68;;;4.63;;
7545;SDS011;3814;51.454;12.616;2023-05-07T13:03:24;7.28;;;4.57;;
7545;SDS011;3814;51.454;12.616;2023-05-07T13:05:51;6.90;;;4.07;;
7545;SDS011;3814;51.454;12.616;2023-05-07T13:08:24;5.78;;;3.83;;
7545;SDS011;3814;51.454;12.616;2023-05-07T13:10:53;6.50;;;4.10;;
7545;SDS011;3814;51.454;12.616;2023-05-07T13:13:19;8.20;;;4.55;;
7545;SDS011;3814;51.454;12.616;2023-05-07T13:15:45;6.93;;;4.28;;
7545;SDS011;3814;51.454;12.616;2023-05-07T13:18:11;7.32;;;4.35;;
7545;SDS011;3814;51.454;12.616;2023-05-07T13:20:36;6.90;;;4.32;;
7545;SDS011;3814;51.454;12.616;2023-05-07T13:23:01;7.05;;;4.43;;
7545;SDS011;3814;51.454;12.616;2023-05-07T13:25:29;7.57;;;4.70;;
7545;SDS011;3814;51.454;12.616;2023-05-07T13:27:54;7.30;;;4.10;;
7545;SDS011;3814;51.454;12.616;2023-05-07T13:30:19;8.77;;;4.43;;
7545;SDS011;3814;51.454;12.616;2023-05-07T13:32:45;6.28;;;4.30;;
7545;SDS011;3814;51.454;12.616;2023-05-07T13:35:12;6.47;;;3.78;;
7545;SDS011;3814;51.454;12.616;2023-05-07T13:37:38;6.65;;;4.20;;
7545;SDS011;3814;51.454;12.616;2023-05-07T13:40:03;6.38;;;3.95;;
7545;SDS011;3814;51.454;12.616;2023-05-07T13:42:29;5.95;;;3.67;;
7545;SDS011;3814;51.454;12.616;2023-05-07T13:44:55;6.25;;;3.80;;
7545;SDS011;3814;51.454;12.616;2023-05-07T13:47:21;4.78;;;2.92;;
7545;SDS011;3814;51.454;12.616;2023-05-07T13:49:46;6.78;;;3.15;;
7545;SDS011;3814;51.454;12.616;2023-05-07T13:52:14;4.07;;;2.78;;
7545;SDS011;3814;51.454;12.616;2023-05-07T13:54:39;5.00;;;3.20;;
7545;SDS011;3814;51.454;12.616;2023-05-07T13:57:05;4.28;;;2.95;;
7545;SDS011;3814;51.454;12.616;2023-05-07T13:59:30;5.00;;;2.90;;
7545;SDS011;3814;51.454;12.616;2023-05-07T14:01:55;4.20;;;3.00;;
7545;SDS011;3814;51.454;12.616;2023-05-07T14:04:21;5.03;;;3.13;;
7545;SDS011;3814;51.454;12.616;2023-05-07T14:06:46;4.20;;;2.92;;
7545;SDS011;3814;51.454;12.616;2023-05-07T14:09:11;4.05;;;3.08;;
7545;SDS011;3814;51.454;12.616;2023-05-07T14:11:38;4.97;;;2.90;;
7545;SDS011;3814;51.454;12.616;2023-05-07T14:14:03;4.43;;;3.00;;
7545;SDS011;3814;51.454;12.616;2023-05-07T14:16:28;4.55;;;3.15;;
7545;SDS011;3814;51.454;12.616;2023-05-07T14:18:54;5.10;;;3.50;;
7545;SDS011;3814;51.454;12.616;2023-05-07T14:21:19;5.47;;;2.83;;
7545;SDS011;3814;51.454;12.616;2023-05-07T14:23:44;6.35;;;3.40;;
7545;SDS011;3814;51.454;12.616;2023-05-07T14:26:10;4.78;;;3.10;;
7545;SDS011;3814;51.454;12.616;2023-05-07T14:28:35;4.22;;;2.70;;
7545;SDS011;3814;51.454;12.616;2023-05-07T14:31:00;4.80;;;3.25;;
7545;SDS011;3814;51.454;12.616;2023-05-07T14:33:26;5.65;;;3.67;;
7545;SDS011;3814;51.454;12.616;2023-05-07T14:35:51;6.35;;;3.65;;
7545;SDS011;3814;51.454;12.616;2023-05-07T14:38:16;5.03;;;3.60;;
7545;SDS011;3814;51.454;12.616;2023-05-07T14:40:41;5.20;;;3.60;;
7545;SDS011;3814;51.454;12.616;2023-05-07T14:43:07;5.65;;;3.45;;
7545;SDS011;3814;51.454;12.616;2023-05-07T14:45:32;5.90;;;3.50;;
7545;SDS011;3814;51.454;12.616;2023-05-07T14:47:57;5.32;;;3.40;;
7545;SDS011;3814;51.454;12.616;2023-05-07T14:50:23;6.30;;;3.75;;
7545;SDS011;3814;51.454;12.616;2023-05-07T14:52:48;4.50;;;3.33;;
7545;SDS011;3814;51.454;12.616;2023-05-07T14:55:13;5.38;;;3.63;;
7545;SDS011;3814;51.454;12.616;2023-05-07T14:57:39;5.95;;;4.20;;
7545;SDS011;3814;51.454;12.616;2023-05-07T15:00:04;6.07;;;4.10;;
7545;SDS011;3814;51.454;12.616;2023-05-07T15:02:30;6.68;;;4.28;;
7545;SDS011;3814;51.454;12.616;2023-05-07T15:04:55;7.53;;;4.63;;
7545;SDS011;3814;51.454;12.616;2023-05-07T15:07:20;7.88;;;4.70;;